Time;durP1;ratioP1;P1;durP2;ratioP2;P2;SDS_P1;SDS_P2;PMS_P1;PMS_P2;Temp;Humidity;BMP_temperature;BMP_pressure;BME280_temperature;BME280_humidity;BME280_pressure;Samples;Min_cycle;Max_cycle;Signal;HPM_P1;HPM_P2
2021/08/26 00:07:40;;;;;;;6.93;3.88;;;;;;;20.06;58.34;101568.94;4859821;28;124609;-74
2021/08/26 00:10:09;;;;;;;6.13;3.85;;;;;;;20.05;58.56;101566.38;4839798;28;124727;-74
2021/08/26 00:12:37;;;;;;;6.72;4.05;;;;;;;20.02;58.61;101562.94;4859294;28;114112;-73
2021/08/26 00:15:06;;;;;;;6.57;3.80;;;;;;;20.01;58.71;101571.97;4842334;28;113100;-73
2021/08/26 00:17:34;;;;;;;6.50;3.42;;;;;;;19.99;58.58;101563.16;4861355;28;123826;-74
2021/08/26 00:20:03;;;;;;;5.85;3.47;;;;;;;19.97;58.79;101559.72;4859149;28;123663;-74
2021/08/26 00:22:32;;;;;;;5.22;3.78;;;;;;;19.94;58.83;101554.56;4844565;28;113347;-73
2021/08/26 00:24:59;;;;;;;5.57;3.80;;;;;;;19.94;58.80;101554.56;4842217;28;113905;-73
2021/08/26 00:27:26;;;;;;;5.28;3.92;;;;;;;19.93;58.88;101560.91;4856688;28;124858;-73
2021/08/26 00:29:53;;;;;;;5.65;3.35;;;;;;;19.91;58.97;101554.81;4856489;28;122763;-73
2021/08/26 00:32:20;;;;;;;8.52;3.88;;;;;;;19.91;58.91;101560.19;4843744;28;117003;-73
2021/08/26 00:34:47;;;;;;;5.70;3.75;;;;;;;19.94;58.95;101554.56;4861635;28;114684;-73
2021/08/26 00:37:14;;;;;;;5.63;3.88;;;;;;;19.94;58.89;101549.19;4858614;28;124496;-73
2021/08/26 00:39:41;;;;;;;8.93;3.80;;;;;;;19.95;59.16;101550.06;4844777;28;122587;-73
2021/08/26 00:42:08;;;;;;;6.03;3.85;;;;;;;19.95;59.09;101550.91;4861077;28;113984;-73
2021/08/26 00:44:39;;;;;;;5.78;3.78;;;;;;;19.95;59.21;101542.84;4847134;28;114336;-74
2021/08/26 00:47:09;;;;;;;7.13;3.63;;;;;;;19.97;59.14;101548.97;4830180;28;123405;-73
2021/08/26 00:49:36;;;;;;;5.93;3.70;;;;;;;19.95;58.84;101545.53;4858584;28;123832;-73
2021/08/26 00:52:03;;;;;;;5.13;3.50;;;;;;;19.95;59.10;101540.16;4863691;28;116058;-73
2021/08/26 00:54:30;;;;;;;4.20;3.20;;;;;;;19.93;59.08;101536.72;4850914;28;113821;-72
2021/08/26 00:56:57;;;;;;;5.43;2.97;;;;;;;19.94;59.15;101538.41;4859182;28;124406;-73
2021/08/26 00:59:26;;;;;;;3.92;2.80;;;;;;;19.93;59.31;101541.22;4862714;28;123910;-73
2021/08/26 01:02:18;;;;;;;4.25;2.67;;;;;;;19.90;59.19;101541.47;4861467;28;114107;-73
2021/08/26 01:04:46;;;;;;;5.15;2.25;;;;;;;19.92;59.04;101529.63;4856910;28;114242;-73
2021/08/26 01:07:30;;;;;;;4.55;2.47;;;;;;;19.92;59.23;101529.63;4843065;28;123910;-74
2021/08/26 01:10:03;;;;;;;4.27;2.17;;;;;;;19.92;59.09;101516.16;4859836;28;123665;-73
2021/08/26 01:12:30;;;;;;;3.90;2.20;;;;;;;19.91;58.96;101516.28;4857961;28;114439;-73
2021/08/26 01:14:58;;;;;;;3.55;2.30;;;;;;;19.89;58.96;101524.47;4856808;28;113757;-73
2021/08/26 01:17:27;;;;;;;3.25;2.08;;;;;;;19.88;59.15;101520.06;4859936;28;123796;-73
2021/08/26 01:19:57;;;;;;;5.22;2.08;;;;;;;19.88;59.13;101512.00;4860480;28;125535;-73
2021/08/26 01:22:26;;;;;;;3.97;2.03;;;;;;;19.88;59.36;101512.00;4862444;28;114315;-73
2021/08/26 01:25:07;;;;;;;4.95;2.20;;;;;;;19.87;59.35;101514.78;4858694;28;114537;-73
2021/08/26 01:27:44;;;;;;;4.30;2.10;;;;;;;19.86;59.14;101519.31;4858353;28;124008;-73
2021/08/26 01:30:16;;;;;;;4.15;2.13;;;;;;;19.88;59.31;101517.38;4855016;28;122997;-73
2021/08/26 01:32:44;;;;;;;4.80;2.00;;;;;;;19.89;59.05;101512.84;4862777;28;114046;-72
2021/08/26 01:35:12;;;;;;;5.43;2.00;;;;;;;19.89;59.20;101508.34;4858724;28;114658;-72
2021/08/26 01:37:40;;;;;;;3.22;1.70;;;;;;;19.90;59.06;101493.06;4841622;28;124430;-73
2021/08/26 01:40:08;;;;;;;4.40;1.92;;;;;;;19.88;59.11;101501.25;4853832;28;124806;-72
2021/08/26 01:42:36;;;;;;;4.88;1.80;;;;;;;19.87;58.90;101499.50;4840638;28;115331;-73
2021/08/26 01:45:08;;;;;;;4.95;1.70;;;;;;;19.86;58.97;101497.81;4851939;28;115265;-73
2021/08/26 01:47:36;;;;;;;4.90;1.80;;;;;;;19.84;58.97;101495.22;4839174;28;124960;-73
2021/08/26 01:50:03;;;;;;;3.75;1.77;;;;;;;19.85;59.04;101496.09;4860859;28;123228;-73
2021/08/26 01:52:31;;;;;;;3.83;1.45;;;;;;;19.84;58.98;101494.38;4862790;28;114071;-74
2021/08/26 01:55:01;;;;;;;3.50;1.40;;;;;;;19.83;58.99;101498.91;4866467;28;113998;-73
2021/08/26 01:57:30;;;;;;;4.30;1.70;;;;;;;19.82;58.88;101493.63;4865756;28;123952;-74
2021/08/26 02:00:07;;;;;;;4.40;1.77;;;;;;;19.80;59.12;101492.91;4865736;28;124339;-72
2021/08/26 02:02:34;;;;;;;3.22;1.52;;;;;;;19.81;59.05;101494.59;4857796;28;114404;-73
2021/08/26 02:05:02;;;;;;;3.90;1.50;;;;;;;19.82;59.07;101496.31;4858991;28;114617;-72
2021/08/26 02:07:29;;;;;;;3.88;1.40;;;;;;;19.81;58.88;101494.59;4856149;28;124834;-72
2021/08/26 02:09:56;;;;;;;5.53;1.70;;;;;;;19.81;59.12;101502.66;4859139;28;123840;-72
2021/08/26 02:12:23;;;;;;;5.70;1.52;;;;;;;19.80;58.98;101499.13;4851660;28;113061;-73
2021/08/26 02:14:50;;;;;;;3.42;1.25;;;;;;;19.82;58.87;101496.31;4855575;28;113788;-72
2021/08/26 02:17:18;;;;;;;4.15;1.50;;;;;;;19.80;58.88;101499.13;4859899;28;123807;-72
2021/08/26 02:19:45;;;;;;;4.65;1.50;;;;;;;19.79;58.73;101501.91;4857204;28;123799;-72
2021/08/26 02:22:12;;;;;;;7.03;1.33;;;;;;;19.79;58.89;101501.91;4858754;28;114439;-72
2021/08/26 02:24:39;;;;;;;5.47;1.63;;;;;;;19.78;58.67;101505.59;4856832;28;113821;-72
2021/08/26 02:27:06;;;;;;;2.95;1.50;;;;;;;19.79;58.76;101501.91;4856646;28;125316;-72
2021/08/26 02:29:33;;;;;;;4.45;1.50;;;;;;;19.77;58.66;101493.13;4863362;28;124821;-72
2021/08/26 02:32:01;;;;;;;2.75;1.30;;;;;;;19.76;58.39;101491.38;4860394;28;96981;-72
2021/08/26 02:34:28;;;;;;;6.25;1.80;;;;;;;19.75;58.39;101489.69;4862914;28;114952;-72
2021/08/26 02:36:57;;;;;;;5.95;1.52;;;;;;;19.73;58.30;101491.63;4866168;28;125380;-73
2021/08/26 02:39:24;;;;;;;3.67;1.20;;;;;;;19.70;58.35;101492.66;4874992;23;123922;-66
2021/08/26 02:41:51;;;;;;;4.15;1.50;;;;;;;19.69;58.13;101484.72;4843028;28;114234;-66
2021/08/26 02:44:18;;;;;;;5.00;1.50;;;;;;;19.66;58.22;101485.78;4842238;28;114028;-66
2021/08/26 02:46:45;;;;;;;4.68;1.52;;;;;;;19.64;58.03;101493.97;4842887;28;123794;-66
2021/08/26 02:49:12;;;;;;;4.85;1.63;;;;;;;19.63;57.88;101491.41;4840365;28;123792;-65
2021/08/26 02:51:41;;;;;;;4.20;1.65;;;;;;;19.62;58.00;101493.22;4838357;28;114836;-65
2021/08/26 02:54:08;;;;;;;5.13;1.75;;;;;;;19.60;58.02;101486.25;4840943;29;113889;-65
2021/08/26 02:56:35;;;;;;;4.57;1.55;;;;;;;19.58;57.88;101482.81;4835621;29;124167;-65
2021/08/26 02:59:02;;;;;;;4.22;1.70;;;;;;;19.57;57.73;101484.66;4839681;28;124249;-66
2021/08/26 03:01:29;;;;;;;6.35;1.75;;;;;;;19.55;57.63;101483.91;4841947;28;114865;-65
2021/08/26 03:03:57;;;;;;;6.32;1.73;;;;;;;19.54;57.60;101490.25;4836117;29;113462;-66
2021/08/26 03:06:24;;;;;;;6.60;1.50;;;;;;;19.52;57.49;101489.50;4838565;28;124476;-66
2021/08/26 03:08:51;;;;;;;5.30;1.88;;;;;;;19.50;57.43;101486.06;4839555;28;124166;-65
2021/08/26 03:11:18;;;;;;;4.22;1.77;;;;;;;19.48;57.44;101490.69;4836059;29;114835;-65
2021/08/26 03:13:45;;;;;;;5.78;1.75;;;;;;;19.47;57.40;101486.28;4837688;28;113493;-66
2021/08/26 03:16:12;;;;;;;7.25;1.77;;;;;;;19.45;57.30;101483.69;4839098;29;123426;-67
2021/08/26 03:18:40;;;;;;;7.55;2.03;;;;;;;19.45;57.25;101475.63;4840421;28;123760;-66
2021/08/26 03:21:07;;;;;;;5.75;1.92;;;;;;;19.45;57.07;101482.84;4838943;28;115116;-66
2021/08/26 03:23:34;;;;;;;5.63;2.42;;;;;;;19.43;56.95;101495.53;4838773;29;115041;-66
2021/08/26 03:26:01;;;;;;;6.68;1.70;;;;;;;19.40;57.05;101493.06;4840271;28;124605;-66
2021/08/26 03:28:28;;;;;;;9.68;2.13;;;;;;;19.38;56.83;101493.19;4837168;28;124843;-67
2021/08/26 03:30:55;;;;;;;8.20;2.10;;;;;;;19.36;56.92;101494.25;4838775;28;114161;-67
2021/08/26 03:33:23;;;;;;;9.77;2.20;;;;;;;19.35;56.73;101497.94;4836560;28;113822;-67
2021/08/26 03:35:50;;;;;;;7.60;2.33;;;;;;;19.35;56.83;101492.56;4843712;28;124682;-67
2021/08/26 03:38:17;;;;;;;6.25;2.03;;;;;;;19.36;56.75;101495.09;4836811;29;123850;-67
2021/08/26 03:40:44;;;;;;;6.90;2.30;;;;;;;19.34;56.87;101491.66;4842610;28;114187;-67
2021/08/26 03:43:11;;;;;;;6.95;2.63;;;;;;;19.34;56.73;101493.50;4839139;28;114125;-67
2021/08/26 03:45:38;;;;;;;8.52;2.45;;;;;;;19.32;56.64;101482.03;4824771;28;124028;-67
2021/08/26 03:48:06;;;;;;;7.57;2.53;;;;;;;19.31;56.62;101485.66;4842345;28;124358;-67
2021/08/26 03:50:33;;;;;;;7.05;2.38;;;;;;;19.28;56.72;101480.53;4844857;28;114308;-66
2021/08/26 03:53:00;;;;;;;12.15;2.60;;;;;;;19.26;56.28;101476.13;4843382;28;113583;-66
2021/08/26 03:55:27;;;;;;;8.00;2.10;;;;;;;19.26;56.53;101468.06;4843100;28;124400;-66
2021/08/26 03:57:54;;;;;;;9.40;2.75;;;;;;;19.25;56.53;101474.41;4843619;28;124876;-67
2021/08/26 04:00:22;;;;;;;9.02;2.22;;;;;;;19.24;56.39;101471.84;4830193;29;114143;-67
2021/08/26 04:02:49;;;;;;;10.80;2.30;;;;;;;19.25;56.52;101487.84;4843246;28;114379;-67
2021/08/26 04:05:16;;;;;;;7.55;2.55;;;;;;;19.25;56.34;101497.72;4842351;28;124198;-67
2021/08/26 04:07:43;;;;;;;7.28;2.30;;;;;;;19.26;56.41;101494.91;4840634;28;124873;-67
2021/08/26 04:10:10;;;;;;;6.15;2.13;;;;;;;19.28;56.40;101496.66;4840061;28;115020;-67
2021/08/26 04:12:37;;;;;;;6.15;2.05;;;;;;;19.28;56.40;101488.59;4840339;28;116622;-67
2021/08/26 04:15:05;;;;;;;8.30;2.22;;;;;;;19.25;56.22;101487.00;4841131;28;125694;-67
2021/08/26 04:17:33;;;;;;;11.45;2.78;;;;;;;19.24;56.30;101487.94;4839584;28;123913;-67
2021/08/26 04:20:00;;;;;;;6.10;2.33;;;;;;;19.23;56.33;101484.41;4842597;28;114288;-66
2021/08/26 04:22:29;;;;;;;5.20;2.20;;;;;;;19.24;56.45;101486.09;4843876;28;113347;-66
2021/08/26 04:24:56;;;;;;;8.52;2.03;;;;;;;19.23;56.21;101476.34;4836375;29;124873;-66
2021/08/26 04:27:27;;;;;;;8.63;2.22;;;;;;;19.21;56.14;101480.97;4840713;28;124260;-66
2021/08/26 04:29:54;;;;;;;6.97;2.03;;;;;;;19.21;56.13;101478.28;4839659;28;114691;-66
2021/08/26 04:32:21;;;;;;;8.55;2.70;;;;;;;19.20;56.16;101473.88;4841186;28;114081;-66
2021/08/26 04:34:48;;;;;;;11.13;2.30;;;;;;;19.20;55.99;101479.25;4842041;29;124018;-67
2021/08/26 04:37:15;;;;;;;10.65;2.38;;;;;;;19.17;56.15;101474.06;4827418;29;122966;-66
2021/08/26 04:39:42;;;;;;;7.07;1.98;;;;;;;19.17;56.04;101474.06;4841407;28;114013;-67
2021/08/26 04:42:09;;;;;;;10.00;2.78;;;;;;;19.17;55.97;101473.22;4837583;28;114294;-66
2021/08/26 04:44:36;;;;;;;9.23;2.90;;;;;;;19.15;56.10;101470.66;4846918;28;124431;-65
2021/08/26 04:47:03;;;;;;;8.13;2.10;;;;;;;19.16;55.99;101466.16;4844309;28;123796;-66
2021/08/26 04:49:31;;;;;;;5.97;2.13;;;;;;;19.17;56.11;101468.72;4828918;28;114547;-66
2021/08/26 04:51:58;;;;;;;5.00;2.20;;;;;;;19.17;55.84;101465.19;4844912;28;114469;-66
2021/08/26 04:54:25;;;;;;;6.07;1.98;;;;;;;19.17;56.11;101457.97;4827129;29;123327;-66
2021/08/26 04:56:52;;;;;;;8.05;2.03;;;;;;;19.16;55.87;101467.00;4846184;29;122994;-66
2021/08/26 04:59:19;;;;;;;6.55;1.80;;;;;;;19.13;55.63;101461.84;4839211;28;115412;-66
2021/08/26 05:01:47;;;;;;;9.07;2.47;;;;;;;19.11;55.46;101458.41;4844363;29;114991;-66
2021/08/26 05:04:20;;;;;;;5.65;2.00;;;;;;;19.09;55.65;101460.34;4839076;29;123938;-65
2021/08/26 05:06:47;;;;;;;8.43;2.10;;;;;;;19.08;55.39;101461.34;4845995;28;124583;-65
2021/08/26 05:09:15;;;;;;;9.63;2.00;;;;;;;19.05;55.70;101458.84;4845742;29;114043;-65
2021/08/26 05:11:42;;;;;;;10.40;2.00;;;;;;;19.03;55.69;101453.59;4846786;28;114342;-65
2021/08/26 05:14:09;;;;;;;7.47;2.17;;;;;;;19.04;55.55;101457.13;4843810;29;124600;-65
2021/08/26 05:16:36;;;;;;;8.55;2.10;;;;;;;19.03;55.67;101460.78;4845716;28;123955;-66
2021/08/26 05:19:03;;;;;;;6.10;2.03;;;;;;;19.03;55.48;101466.16;4845246;28;114408;-66
2021/08/26 05:21:31;;;;;;;6.18;1.92;;;;;;;19.02;55.64;101464.44;4844312;28;113403;-66
2021/08/26 05:23:58;;;;;;;7.32;2.20;;;;;;;19.02;55.51;101453.69;4837118;29;123580;-66
2021/08/26 05:26:25;;;;;;;7.70;1.95;;;;;;;19.04;55.35;101459.81;4844527;28;123780;-66
2021/08/26 05:28:53;;;;;;;7.78;1.70;;;;;;;19.04;55.35;101454.44;4842897;28;114561;-66
2021/08/26 05:31:20;;;;;;;6.15;2.00;;;;;;;19.05;55.39;101458.84;4847615;28;113533;-66
2021/08/26 05:33:48;;;;;;;7.70;2.30;;;;;;;19.04;55.30;101457.13;4844069;28;123843;-66
2021/08/26 05:36:15;;;;;;;8.63;1.90;;;;;;;19.04;55.40;101462.50;4849806;28;124370;-65
2021/08/26 05:38:42;;;;;;;8.65;2.10;;;;;;;19.06;55.53;101455.19;4842172;28;113932;-66
2021/08/26 05:41:09;;;;;;;8.57;2.20;;;;;;;19.08;55.46;101463.13;4844323;28;113915;-66
2021/08/26 05:43:36;;;;;;;14.32;2.40;;;;;;;19.08;55.30;101464.03;4842021;28;123964;-66
2021/08/26 05:46:05;;;;;;;7.65;1.90;;;;;;;19.09;55.34;101471.09;4844342;28;124818;-66
2021/08/26 05:48:33;;;;;;;7.53;1.95;;;;;;;19.11;55.44;101469.16;4841024;29;114931;-66
2021/08/26 05:51:01;;;;;;;6.55;2.13;;;;;;;19.13;55.31;101467.22;4845666;28;114999;-66
2021/08/26 05:53:28;;;;;;;7.75;1.80;;;;;;;19.16;55.21;101460.78;4843160;29;124050;-66
2021/08/26 05:55:55;;;;;;;8.25;2.25;;;;;;;19.16;55.36;101460.78;4841223;29;123840;-66
2021/08/26 05:58:22;;;;;;;9.02;2.53;;;;;;;19.17;55.31;101457.97;4850557;28;114507;-66
2021/08/26 06:00:49;;;;;;;6.47;1.73;;;;;;;19.19;55.24;101461.44;4832691;29;112839;-66
2021/08/26 06:03:17;;;;;;;9.88;2.40;;;;;;;19.21;55.30;101464.88;4845085;28;124052;-67
2021/08/26 06:05:44;;;;;;;6.15;1.85;;;;;;;19.21;55.30;101459.50;4823752;29;122783;-67
2021/08/26 06:08:11;;;;;;;7.05;2.20;;;;;;;19.23;55.08;101460.22;4827651;29;113428;-67
2021/08/26 06:10:38;;;;;;;7.38;2.00;;;;;;;19.25;55.25;101455.63;4834695;29;113561;-66
2021/08/26 06:13:06;;;;;;;7.55;2.33;;;;;;;19.29;55.03;101468.78;4837171;28;123926;-67
2021/08/26 06:15:33;;;;;;;9.23;2.38;;;;;;;19.33;55.18;101467.63;4826793;28;122952;-67
2021/08/26 06:18:00;;;;;;;8.35;2.15;;;;;;;19.36;55.45;101462.88;4842703;28;113556;-67
2021/08/26 06:20:28;;;;;;;6.95;1.98;;;;;;;19.39;55.26;101461.81;4844767;28;113687;-67
2021/08/26 06:22:55;;;;;;;8.52;1.90;;;;;;;19.44;55.03;101470.41;4834246;29;123767;-67
2021/08/26 06:25:22;;;;;;;9.50;2.25;;;;;;;19.47;55.23;101462.09;4848192;28;123819;-67
2021/08/26 06:27:49;;;;;;;5.38;1.60;;;;;;;19.48;55.12;101466.53;4841030;29;114859;-67
2021/08/26 06:30:17;;;;;;;6.53;1.88;;;;;;;19.51;54.97;101471.66;4855406;29;114547;-67
2021/08/26 06:32:44;;;;;;;8.35;2.00;;;;;;;19.52;54.88;101468.00;4840340;29;124386;-67
2021/08/26 06:35:12;;;;;;;8.50;1.65;;;;;;;19.53;54.99;101469.72;4848186;28;124357;-67
2021/08/26 06:37:39;;;;;;;7.45;1.80;;;;;;;19.54;54.78;101466.06;4838197;28;114006;-67
2021/08/26 06:40:07;;;;;;;5.07;1.80;;;;;;;19.56;54.77;101472.19;4840572;28;115213;-67
2021/08/26 06:42:34;;;;;;;8.07;1.60;;;;;;;19.60;54.62;101470.97;4841976;28;123944;-67
2021/08/26 06:45:01;;;;;;;6.28;1.40;;;;;;;19.62;54.57;101469.03;4855028;29;123771;-67
2021/08/26 06:47:28;;;;;;;6.90;1.80;;;;;;;19.67;54.74;101465.19;4852088;29;114696;-66
2021/08/26 06:49:55;;;;;;;8.85;2.15;;;;;;;19.73;54.82;101459.38;4850375;28;114273;-67
2021/08/26 06:52:22;;;;;;;8.95;1.92;;;;;;;19.80;54.53;101463.34;4855617;28;124102;-67
2021/08/26 06:54:50;;;;;;;7.22;1.73;;;;;;;19.85;54.46;101463.81;4854301;29;123976;-67
2021/08/26 06:57:17;;;;;;;6.60;1.50;;;;;;;19.91;54.73;101458.00;4844620;28;114374;-67
2021/08/26 06:59:44;;;;;;;11.57;1.85;;;;;;;19.98;54.48;101464.63;4843708;28;114277;-67
2021/08/26 07:02:11;;;;;;;8.80;1.80;;;;;;;20.03;54.38;101461.59;4838206;28;125859;-67
2021/08/26 07:04:38;;;;;;;5.45;1.55;;;;;;;20.11;54.07;101458.34;4838575;28;124590;-67
2021/08/26 07:07:07;;;;;;;7.20;1.58;;;;;;;20.17;54.21;101455.16;4840743;28;114139;-66
2021/08/26 07:09:35;;;;;;;5.45;1.50;;;;;;;20.22;54.16;101450.31;4850251;29;114447;-66
2021/08/26 07:12:02;;;;;;;10.55;1.63;;;;;;;20.27;53.79;101450.81;4854033;28;124124;-66
2021/08/26 07:14:29;;;;;;;5.80;1.77;;;;;;;20.31;53.69;101460.38;4853241;29;124662;-66
2021/08/26 07:16:56;;;;;;;6.22;1.58;;;;;;;20.34;53.45;101459.25;4852904;28;114281;-67
2021/08/26 07:19:24;;;;;;;5.28;1.40;;;;;;;20.35;53.39;101467.22;4832645;29;113354;-67
2021/08/26 07:21:51;;;;;;;5.63;1.50;;;;;;;20.37;53.32;101465.28;4820584;28;123235;-67
2021/08/26 07:24:18;;;;;;;5.85;1.42;;;;;;;20.38;53.32;101467.00;4847355;29;124449;-67
2021/08/26 07:26:45;;;;;;;4.93;1.70;;;;;;;20.41;53.35;101472.13;4851053;28;115289;-67
2021/08/26 07:29:12;;;;;;;4.35;1.15;;;;;;;20.43;53.00;101464.78;4855420;28;114376;-67
2021/08/26 07:31:39;;;;;;;5.72;1.10;;;;;;;20.43;52.87;101470.16;4857343;29;125126;-67
2021/08/26 07:34:06;;;;;;;6.45;1.00;;;;;;;20.43;52.87;101464.78;4855180;28;124725;-67
2021/08/26 07:36:33;;;;;;;4.25;0.90;;;;;;;20.45;52.64;101466.53;4857176;28;114679;-67
2021/08/26 07:39:01;;;;;;;4.63;1.10;;;;;;;20.45;52.67;101466.53;4854221;28;114300;-67
2021/08/26 07:41:29;;;;;;;4.43;1.27;;;;;;;20.48;52.70;101466.28;4853592;28;124026;-67
2021/08/26 07:43:57;;;;;;;5.07;1.20;;;;;;;20.53;52.81;101464.09;4839113;28;122940;-67
2021/08/26 07:46:25;;;;;;;5.40;1.40;;;;;;;20.58;52.65;101467.28;4856179;29;114590;-66
2021/08/26 07:48:52;;;;;;;3.70;1.00;;;;;;;20.60;52.70;101468.91;4853757;28;114650;-66
2021/08/26 07:51:19;;;;;;;5.45;1.40;;;;;;;20.65;52.44;101462.34;4854578;28;123512;-66
2021/08/26 07:53:46;;;;;;;5.45;1.23;;;;;;;20.66;52.50;101464.88;4854837;29;124069;-67
2021/08/26 07:56:13;;;;;;;7.07;1.33;;;;;;;20.69;52.38;101464.66;4856555;28;114208;-67
2021/08/26 07:58:40;;;;;;;7.70;1.20;;;;;;;20.72;52.33;101477.00;4854511;28;114021;-66
2021/08/26 08:01:10;;;;;;;5.47;1.58;;;;;;;20.75;52.29;101469.53;4841417;29;123722;-68
2021/08/26 08:03:50;;;;;;;7.40;1.58;;;;;;;20.77;52.21;101467.59;4835480;29;123340;-67
2021/08/26 08:06:18;;;;;;;4.50;1.27;;;;;;;20.78;52.24;101463.94;4837720;29;114897;-67
2021/08/26 08:08:45;;;;;;;6.70;1.48;;;;;;;20.77;52.27;101467.59;4838978;28;113813;-67
2021/08/26 08:11:12;;;;;;;6.18;1.25;;;;;;;20.77;52.38;101467.59;4836917;29;123692;-67
2021/08/26 08:14:02;;;;;;;4.63;1.30;;;;;;;20.78;52.28;101466.63;4836574;29;124587;-69
2021/08/26 08:16:30;;;;;;;5.72;1.25;;;;;;;20.77;51.76;101466.75;4837503;28;115214;-69
2021/08/26 08:18:58;;;;;;;7.00;1.23;;;;;;;20.72;51.96;101458.16;4834388;28;115700;-69
2021/08/26 08:21:25;;;;;;;6.88;1.40;;;;;;;20.69;51.96;101464.66;4833920;29;124455;-69
2021/08/26 08:23:52;;;;;;;5.30;1.20;;;;;;;20.68;51.88;101468.34;4840865;28;125007;-66
2021/08/26 08:26:19;;;;;;;4.15;1.20;;;;;;;20.66;52.16;101470.25;4836303;29;114347;-66
2021/08/26 08:28:47;;;;;;;6.78;1.38;;;;;;;20.67;52.07;101455.84;4834949;28;114174;-66
2021/08/26 08:31:14;;;;;;;6.15;1.48;;;;;;;20.69;51.98;101461.97;4836704;29;123515;-66
2021/08/26 08:33:44;;;;;;;5.43;1.40;;;;;;;20.70;52.06;101470.88;4851025;29;125162;-66
2021/08/26 08:36:11;;;;;;;7.32;1.20;;;;;;;20.68;52.17;101468.34;4840568;28;114124;-66
2021/08/26 08:38:38;;;;;;;6.68;1.38;;;;;;;20.63;52.29;101470.53;4840915;29;113930;-66
2021/08/26 08:41:06;;;;;;;3.15;1.20;;;;;;;20.59;52.34;101466.31;4877764;23;124640;-64
2021/08/26 08:43:36;;;;;;;6.38;1.40;;;;;;;20.54;52.33;101465.81;4874938;28;124349;-64
2021/08/26 08:46:04;;;;;;;6.55;1.40;;;;;;;20.51;52.44;101471.41;4876094;28;114350;-64
2021/08/26 08:48:35;;;;;;;8.95;1.52;;;;;;;20.52;52.72;101462.38;4875343;28;114074;-64
2021/08/26 08:51:02;;;;;;;5.05;1.30;;;;;;;20.55;52.91;101467.50;4874159;28;124039;-64
2021/08/26 08:53:30;;;;;;;4.18;1.23;;;;;;;20.60;53.08;101470.75;4871821;28;123950;-64
2021/08/26 08:55:58;;;;;;;4.40;1.48;;;;;;;20.67;52.97;101465.75;4876279;28;114601;-64
2021/08/26 08:58:25;;;;;;;7.28;1.25;;;;;;;20.69;52.86;101464.66;4875685;28;114287;-65
2021/08/26 09:00:53;;;;;;;5.70;1.25;;;;;;;20.73;53.30;101455.34;4875736;28;124897;-65
2021/08/26 09:03:21;;;;;;;3.63;1.48;;;;;;;20.85;53.29;101452.66;4865727;28;122770;-64
2021/08/26 09:05:56;;;;;;;6.13;1.30;;;;;;;20.97;53.40;101451.72;4875873;28;114940;-65
2021/08/26 09:08:26;;;;;;;6.65;1.42;;;;;;;21.06;53.25;101456.38;4870890;28;114763;-64
2021/08/26 09:11:07;;;;;;;6.82;2.05;;;;;;;21.15;52.92;101450.25;4875970;28;123981;-64
2021/08/26 09:13:35;;;;;;;6.22;3.13;;;;;;;21.24;52.98;101453.19;4870870;28;123744;-65
2021/08/26 09:16:02;;;;;;;16.08;12.80;;;;;;;21.31;52.91;101449.84;4873078;28;114067;-65
2021/08/26 09:18:30;;;;;;;6.20;1.60;;;;;;;21.39;52.80;101449.22;4874300;28;114178;-65
2021/08/26 09:21:00;;;;;;;7.80;2.97;;;;;;;21.43;52.47;101458.78;4874582;28;124866;-65
2021/08/26 09:23:30;;;;;;;5.75;3.35;;;;;;;21.42;52.49;101462.47;4875140;28;124580;-65
2021/08/26 09:26:24;;;;;;;5.93;2.15;;;;;;;21.29;52.62;101472.53;4876887;28;114571;-65
2021/08/26 09:28:53;;;;;;;5.53;2.65;;;;;;;21.18;52.90;101470.69;4874967;28;114002;-66
2021/08/26 09:31:26;;;;;;;6.97;2.20;;;;;;;21.08;53.43;101465.19;4876226;28;124378;-65
2021/08/26 09:34:00;;;;;;;4.63;1.58;;;;;;;21.00;53.67;101452.34;4873057;28;124622;-65
2021/08/26 09:36:31;;;;;;;8.05;2.15;;;;;;;20.94;53.81;101460.03;4874973;28;114191;-66
2021/08/26 09:39:17;;;;;;;4.43;1.42;;;;;;;20.86;54.17;101459.78;4876829;28;113916;-65
2021/08/26 09:41:50;;;;;;;5.80;1.63;;;;;;;20.82;54.44;101461.00;4861176;28;125108;-66
2021/08/26 09:44:24;;;;;;;2.97;1.30;;;;;;;20.79;54.52;101464.78;4864641;28;123954;-66
2021/08/26 09:46:54;;;;;;;9.10;2.00;;;;;;;20.73;54.39;101466.13;4873793;28;114717;-66
2021/08/26 09:49:25;;;;;;;5.72;2.03;;;;;;;20.68;54.62;101462.94;4873978;28;114372;-65
2021/08/26 09:52:15;;;;;;;4.57;2.10;;;;;;;20.66;54.86;101470.25;4864574;28;124726;-65
2021/08/26 09:54:49;;;;;;;4.35;1.65;;;;;;;20.65;55.01;101465.88;4871765;28;124601;-65
2021/08/26 09:57:27;;;;;;;5.32;1.83;;;;;;;20.64;54.94;101461.44;4874114;28;115436;-65
2021/08/26 09:59:56;;;;;;;3.55;1.50;;;;;;;20.65;55.28;101462.34;4872911;28;114537;-66
2021/08/26 10:02:26;;;;;;;4.05;1.40;;;;;;;20.73;55.69;101462.56;4876390;28;124015;-66
2021/08/26 10:04:54;;;;;;;5.97;1.55;;;;;;;20.83;55.89;101454.63;4868573;28;124371;-66
2021/08/26 10:07:24;;;;;;;3.25;1.27;;;;;;;20.97;56.51;101457.94;4874223;28;114157;-66
2021/08/26 10:09:52;;;;;;;5.35;1.30;;;;;;;21.14;56.16;101453.91;4866080;28;112860;-66
2021/08/26 10:12:19;;;;;;;4.22;1.27;;;;;;;21.31;56.05;101459.78;4873011;28;124292;-66
2021/08/26 10:14:49;;;;;;;4.25;1.40;;;;;;;21.44;55.85;101449.75;4872993;28;123316;-65
2021/08/26 10:17:18;;;;;;;4.18;1.40;;;;;;;21.56;55.61;101448.75;4873827;28;114362;-65
2021/08/26 10:19:47;;;;;;;7.35;1.58;;;;;;;21.67;55.62;101450.56;4874860;28;113883;-66
2021/08/26 10:22:14;;;;;;;5.97;1.50;;;;;;;21.78;55.21;101446.97;4874880;28;123906;-65
2021/08/26 10:24:42;;;;;;;4.90;1.20;;;;;;;21.84;54.91;101451.84;4870722;28;124030;-66
2021/08/26 10:27:14;;;;;;;4.20;1.13;;;;;;;21.85;54.28;101453.59;4855641;28;114128;-65
2021/08/26 10:29:44;;;;;;;4.22;1.63;;;;;;;21.84;53.95;101457.25;4867916;28;114045;-65
2021/08/26 10:32:24;;;;;;;2.95;0.88;;;;;;;21.80;53.67;101461.19;4870231;28;124114;-65
2021/08/26 10:35:06;;;;;;;2.97;1.08;;;;;;;21.78;53.54;101471.25;4861228;28;124455;-65
2021/08/26 10:37:54;;;;;;;3.35;1.08;;;;;;;21.74;53.52;101464.41;4861716;28;113835;-65
2021/08/26 10:40:38;;;;;;;4.15;1.40;;;;;;;21.68;53.67;101467.59;4875157;28;114327;-66
2021/08/26 10:43:07;;;;;;;3.45;0.90;;;;;;;21.67;53.86;101464.03;4865769;28;123786;-65
2021/08/26 10:45:49;;;;;;;2.25;1.00;;;;;;;21.67;53.88;101460.50;4875036;28;124320;-66
2021/08/26 10:48:27;;;;;;;3.00;0.90;;;;;;;21.73;54.21;101465.38;4859514;28;114095;-65
2021/08/26 10:51:08;;;;;;;6.15;1.10;;;;;;;21.85;54.26;101464.38;4873254;28;115184;-66
2021/08/26 10:53:41;;;;;;;3.65;1.00;;;;;;;21.95;53.91;101459.91;4864940;28;124101;-66
2021/08/26 10:56:22;;;;;;;2.45;1.02;;;;;;;22.06;54.28;101466.25;4872081;28;124040;-66
2021/08/26 10:58:50;;;;;;;2.72;1.40;;;;;;;22.17;53.97;101458.13;4876396;28;114728;-65
2021/08/26 11:01:27;;;;;;;4.68;1.63;;;;;;;22.26;53.68;101468.16;4863624;28;112853;-65
2021/08/26 11:04:06;;;;;;;4.65;1.25;;;;;;;22.31;53.60;101460.53;4874306;28;123406;-65
2021/08/26 11:06:35;;;;;;;5.40;1.52;;;;;;;22.38;53.39;101454.59;4876807;28;124167;-65
2021/08/26 11:09:11;;;;;;;4.32;1.60;;;;;;;22.41;53.30;101455.19;4873610;28;114395;-66
2021/08/26 11:11:45;;;;;;;5.13;1.50;;;;;;;22.48;53.09;101455.53;4856431;28;114500;-66
2021/08/26 11:14:12;;;;;;;6.18;1.60;;;;;;;22.51;53.09;101455.28;4858214;28;123356;-66
2021/08/26 11:16:45;;;;;;;3.90;1.50;;;;;;;22.53;52.89;101456.00;4876063;28;123835;-65
2021/08/26 11:19:15;;;;;;;6.35;1.40;;;;;;;22.57;52.61;101449.34;4861269;28;114108;-65
2021/08/26 11:21:43;;;;;;;4.28;1.45;;;;;;;22.53;52.74;101464.09;4856422;28;113901;-65
2021/08/26 11:24:16;;;;;;;4.07;2.28;;;;;;;22.46;52.38;101457.50;4860769;28;124337;-66
2021/08/26 11:26:55;;;;;;;3.75;1.30;;;;;;;22.34;52.26;101454.88;4865160;28;122954;-66
2021/08/26 11:29:23;;;;;;;4.68;1.48;;;;;;;22.24;52.37;101459.28;4861302;28;114780;-66
2021/08/26 11:31:53;;;;;;;2.55;1.42;;;;;;;22.17;52.83;101463.53;4873607;28;114159;-66